sensor_id;sensor_type;location;lat;lon;timestamp;P1;durP1;ratioP1;P2;durP2;ratioP2
51479;SDS011;37556;44.570;18.612;2024-01-16T07:49:13;5.60;;;5.20;;
51479;SDS011;37556;44.570;18.612;2024-01-16T07:51:40;9.18;;;8.25;;
51479;SDS011;37556;44.570;18.612;2024-01-16T07:54:06;10.40;;;7.72;;
51479;SDS011;37556;44.570;18.612;2024-01-16T07:56:33;11.02;;;5.50;;
51479;SDS011;37556;44.570;18.612;2024-01-16T07:59:00;7.18;;;5.00;;
51479;SDS011;37556;44.570;18.612;2024-01-16T08:17:06;11.73;;;10.48;;
51479;SDS011;37556;44.570;18.612;2024-01-16T08:19:33;10.85;;;6.72;;
51479;SDS011;37556;44.570;18.612;2024-01-16T08:21:59;15.40;;;13.68;;
51479;SDS011;37556;44.570;18.612;2024-01-16T08:24:27;20.98;;;9.63;;
51479;SDS011;37556;44.570;18.612;2024-01-16T08:26:53;18.13;;;13.98;;
51479;SDS011;37556;44.570;18.612;2024-01-16T08:29:22;9.00;;;7.82;;
51479;SDS011;37556;44.570;18.612;2024-01-16T08:31:48;15.52;;;11.80;;
51479;SDS011;37556;44.570;18.612;2024-01-16T08:34:14;11.10;;;10.02;;
51479;SDS011;37556;44.570;18.612;2024-01-16T08:36:40;7.93;;;6.15;;
51479;SDS011;37556;44.570;18.612;2024-01-16T08:39:06;19.80;;;13.60;;
51479;SDS011;37556;44.570;18.612;2024-01-16T08:41:32;27.42;;;12.32;;
51479;SDS011;37556;44.570;18.612;2024-01-16T08:43:58;14.52;;;9.35;;
51479;SDS011;37556;44.570;18.612;2024-01-16T08:46:25;24.38;;;13.07;;
51479;SDS011;37556;44.570;18.612;2024-01-16T08:48:51;7.93;;;6.95;;
51479;SDS011;37556;44.570;18.612;2024-01-16T08:51:17;19.52;;;13.15;;
51479;SDS011;37556;44.570;18.612;2024-01-16T08:53:43;20.73;;;10.85;;
51479;SDS011;37556;44.570;18.612;2024-01-16T08:56:09;31.42;;;14.52;;
51479;SDS011;37556;44.570;18.612;2024-01-16T08:58:37;28.75;;;14.95;;
51479;SDS011;37556;44.570;18.612;2024-01-16T09:01:06;28.52;;;14.30;;
51479;SDS011;37556;44.570;18.612;2024-01-16T09:03:33;13.30;;;7.63;;
51479;SDS011;37556;44.570;18.612;2024-01-16T09:05:59;23.30;;;10.90;;
51479;SDS011;37556;44.570;18.612;2024-01-16T09:08:26;17.73;;;10.60;;
51479;SDS011;37556;44.570;18.612;2024-01-16T09:10:56;6.50;;;6.00;;
51479;SDS011;37556;44.570;18.612;2024-01-16T09:13:22;8.63;;;4.70;;
51479;SDS011;37556;44.570;18.612;2024-01-16T09:15:48;4.38;;;2.80;;
51479;SDS011;37556;44.570;18.612;2024-01-16T09:18:15;2.30;;;2.15;;
51479;SDS011;37556;44.570;18.612;2024-01-16T09:20:42;9.27;;;6.15;;
51479;SDS011;37556;44.570;18.612;2024-01-16T09:23:11;5.10;;;4.63;;
51479;SDS011;37556;44.570;18.612;2024-01-16T09:25:37;10.85;;;4.32;;
51479;SDS011;37556;44.570;18.612;2024-01-16T09:28:04;5.65;;;5.15;;
51479;SDS011;37556;44.570;18.612;2024-01-16T09:30:31;6.25;;;4.15;;
51479;SDS011;37556;44.570;18.612;2024-01-16T09:32:58;6.82;;;5.70;;
51479;SDS011;37556;44.570;18.612;2024-01-16T09:35:24;6.75;;;5.15;;
51479;SDS011;37556;44.570;18.612;2024-01-16T09:37:50;6.25;;;5.57;;
51479;SDS011;37556;44.570;18.612;2024-01-16T09:40:16;7.03;;;4.90;;
51479;SDS011;37556;44.570;18.612;2024-01-16T09:42:42;8.10;;;5.90;;
51479;SDS011;37556;44.570;18.612;2024-01-16T09:45:09;7.50;;;5.28;;
51479;SDS011;37556;44.570;18.612;2024-01-16T09:47:36;10.73;;;5.93;;
51479;SDS011;37556;44.570;18.612;2024-01-16T09:50:04;7.00;;;6.43;;
51479;SDS011;37556;44.570;18.612;2024-01-16T09:52:30;6.25;;;5.75;;
51479;SDS011;37556;44.570;18.612;2024-01-16T09:54:57;5.60;;;5.20;;
51479;SDS011;37556;44.570;18.612;2024-01-16T09:57:24;6.50;;;5.53;;
51479;SDS011;37556;44.570;18.612;2024-01-16T09:59:55;9.52;;;5.80;;
51479;SDS011;37556;44.570;18.612;2024-01-16T10:02:22;4.78;;;4.28;;
51479;SDS011;37556;44.570;18.612;2024-01-16T10:07:17;3.95;;;3.58;;
51479;SDS011;37556;44.570;18.612;2024-01-16T10:09:44;6.82;;;4.72;;
51479;SDS011;37556;44.570;18.612;2024-01-16T10:12:10;5.65;;;3.75;;
51479;SDS011;37556;44.570;18.612;2024-01-16T10:14:38;14.27;;;8.73;;
51479;SDS011;37556;44.570;18.612;2024-01-16T10:17:04;9.85;;;7.50;;
51479;SDS011;37556;44.570;18.612;2024-01-16T10:19:32;11.88;;;8.07;;
51479;SDS011;37556;44.570;18.612;2024-01-16T10:22:01;8.30;;;7.53;;
51479;SDS011;37556;44.570;18.612;2024-01-16T10:24:28;13.68;;;8.90;;
51479;SDS011;37556;44.570;18.612;2024-01-16T10:26:58;13.73;;;6.93;;
51479;SDS011;37556;44.570;18.612;2024-01-16T10:29:28;7.38;;;4.50;;
51479;SDS011;37556;44.570;18.612;2024-01-16T10:31:58;10.02;;;7.13;;
51479;SDS011;37556;44.570;18.612;2024-01-16T10:34:25;4.68;;;4.28;;
51479;SDS011;37556;44.570;18.612;2024-01-16T10:36:52;8.73;;;4.78;;
51479;SDS011;37556;44.570;18.612;2024-01-16T10:39:24;6.72;;;6.07;;
51479;SDS011;37556;44.570;18.612;2024-01-16T10:41:54;10.82;;;6.63;;
51479;SDS011;37556;44.570;18.612;2024-01-16T10:44:21;6.70;;;5.95;;
51479;SDS011;37556;44.570;18.612;2024-01-16T10:46:50;5.35;;;4.95;;
51479;SDS011;37556;44.570;18.612;2024-01-16T10:49:16;18.83;;;7.50;;
51479;SDS011;37556;44.570;18.612;2024-01-16T10:51:43;4.53;;;4.13;;
51479;SDS011;37556;44.570;18.612;2024-01-16T10:54:12;9.90;;;5.70;;
51479;SDS011;37556;44.570;18.612;2024-01-16T10:56:44;5.18;;;4.82;;
51479;SDS011;37556;44.570;18.612;2024-01-16T11:01:58;7.00;;;5.28;;
51479;SDS011;37556;44.570;18.612;2024-01-16T11:04:28;5.82;;;5.32;;
51479;SDS011;37556;44.570;18.612;2024-01-16T11:07:03;4.57;;;4.15;;
51479;SDS011;37556;44.570;18.612;2024-01-16T11:09:31;4.28;;;3.88;;
51479;SDS011;37556;44.570;18.612;2024-01-16T11:11:57;1.95;;;1.85;;
51479;SDS011;37556;44.570;18.612;2024-01-16T11:14:24;4.25;;;3.42;;
51479;SDS011;37556;44.570;18.612;2024-01-16T11:16:53;6.47;;;4.72;;
51479;SDS011;37556;44.570;18.612;2024-01-16T11:19:21;5.60;;;3.35;;
51479;SDS011;37556;44.570;18.612;2024-01-16T11:24:14;3.13;;;2.70;;
51479;SDS011;37556;44.570;18.612;2024-01-16T11:26:40;3.00;;;2.38;;
51479;SDS011;37556;44.570;18.612;2024-01-16T11:31:51;3.53;;;3.00;;
51479;SDS011;37556;44.570;18.612;2024-01-16T11:39:19;3.53;;;2.67;;
51479;SDS011;37556;44.570;18.612;2024-01-16T11:41:49;9.43;;;3.00;;
51479;SDS011;37556;44.570;18.612;2024-01-16T11:47:01;6.00;;;3.53;;
51479;SDS011;37556;44.570;18.612;2024-01-16T11:49:27;2.85;;;2.42;;
51479;SDS011;37556;44.570;18.612;2024-01-16T11:51:56;1.23;;;1.23;;
51479;SDS011;37556;44.570;18.612;2024-01-16T11:54:22;1.45;;;1.35;;
51479;SDS011;37556;44.570;18.612;2024-01-16T12:02:00;2.28;;;2.00;;
51479;SDS011;37556;44.570;18.612;2024-01-16T12:04:27;1.33;;;1.20;;
51479;SDS011;37556;44.570;18.612;2024-01-16T12:06:57;1.75;;;1.65;;
51479;SDS011;37556;44.570;18.612;2024-01-16T12:09:25;0.93;;;0.85;;
51479;SDS011;37556;44.570;18.612;2024-01-16T12:11:59;1.10;;;1.02;;
51479;SDS011;37556;44.570;18.612;2024-01-16T12:14:26;2.40;;;2.30;;
51479;SDS011;37556;44.570;18.612;2024-01-16T12:16:52;0.77;;;0.77;;
51479;SDS011;37556;44.570;18.612;2024-01-16T12:21:45;0.90;;;0.30;;
51479;SDS011;37556;44.570;18.612;2024-01-16T12:24:11;1.15;;;1.13;;
51479;SDS011;37556;44.570;18.612;2024-01-16T12:26:38;0.40;;;0.40;;
51479;SDS011;37556;44.570;18.612;2024-01-16T12:29:06;0.40;;;0.40;;
51479;SDS011;37556;44.570;18.612;2024-01-16T12:31:32;0.35;;;0.35;;
51479;SDS011;37556;44.570;18.612;2024-01-16T12:34:05;1.85;;;1.13;;
51479;SDS011;37556;44.570;18.612;2024-01-16T12:36:32;0.65;;;0.65;;
51479;SDS011;37556;44.570;18.612;2024-01-16T12:39:02;0.00;;;0.00;;
51479;SDS011;37556;44.570;18.612;2024-01-16T12:41:32;0.30;;;0.28;;
51479;SDS011;37556;44.570;18.612;2024-01-16T12:44:00;0.17;;;0.17;;
51479;SDS011;37556;44.570;18.612;2024-01-16T12:46:39;0.40;;;0.38;;
51479;SDS011;37556;44.570;18.612;2024-01-16T12:49:08;0.10;;;0.10;;
51479;SDS011;37556;44.570;18.612;2024-01-16T12:51:36;0.17;;;0.17;;
51479;SDS011;37556;44.570;18.612;2024-01-16T12:56:31;0.70;;;0.70;;
51479;SDS011;37556;44.570;18.612;2024-01-16T13:01:43;0.75;;;0.70;;
51479;SDS011;37556;44.570;18.612;2024-01-16T13:07:02;6.40;;;0.55;;
51479;SDS011;37556;44.570;18.612;2024-01-16T13:09:40;1.63;;;1.52;;
51479;SDS011;37556;44.570;18.612;2024-01-16T13:12:10;1.80;;;1.70;;
51479;SDS011;37556;44.570;18.612;2024-01-16T13:14:45;0.98;;;0.98;;
51479;SDS011;37556;44.570;18.612;2024-01-16T13:17:11;2.00;;;1.88;;
51479;SDS011;37556;44.570;18.612;2024-01-16T13:19:40;1.38;;;0.90;;
51479;SDS011;37556;44.570;18.612;2024-01-16T13:22:10;0.57;;;0.30;;
51479;SDS011;37556;44.570;18.612;2024-01-16T13:24:36;1.13;;;0.20;;
51479;SDS011;37556;44.570;18.612;2024-01-16T13:29:49;0.22;;;0.22;;
51479;SDS011;37556;44.570;18.612;2024-01-16T13:32:33;0.00;;;0.00;;
51479;SDS011;37556;44.570;18.612;2024-01-16T13:35:17;0.55;;;0.38;;
51479;SDS011;37556;44.570;18.612;2024-01-16T13:37:46;1.70;;;1.40;;
51479;SDS011;37556;44.570;18.612;2024-01-16T13:43:12;9.15;;;3.97;;
51479;SDS011;37556;44.570;18.612;2024-01-16T13:45:50;0.35;;;0.35;;
51479;SDS011;37556;44.570;18.612;2024-01-16T13:48:20;1.48;;;1.38;;
51479;SDS011;37556;44.570;18.612;2024-01-16T13:50:49;0.10;;;0.10;;
51479;SDS011;37556;44.570;18.612;2024-01-16T13:53:21;0.32;;;0.25;;
51479;SDS011;37556;44.570;18.612;2024-01-16T13:55:57;0.63;;;0.63;;
51479;SDS011;37556;44.570;18.612;2024-01-16T13:58:26;1.02;;;0.40;;
51479;SDS011;37556;44.570;18.612;2024-01-16T14:00:52;0.57;;;0.57;;
51479;SDS011;37556;44.570;18.612;2024-01-16T14:05:50;2.08;;;0.77;;
51479;SDS011;37556;44.570;18.612;2024-01-16T14:08:21;0.13;;;0.13;;
51479;SDS011;37556;44.570;18.612;2024-01-16T14:10:53;3.05;;;1.00;;
51479;SDS011;37556;44.570;18.612;2024-01-16T14:13:22;1.58;;;1.48;;
51479;SDS011;37556;44.570;18.612;2024-01-16T14:15:50;1.10;;;1.00;;
51479;SDS011;37556;44.570;18.612;2024-01-16T14:18:16;2.47;;;2.28;;
51479;SDS011;37556;44.570;18.612;2024-01-16T14:20:45;0.95;;;0.95;;
51479;SDS011;37556;44.570;18.612;2024-01-16T14:23:17;3.83;;;2.45;;
51479;SDS011;37556;44.570;18.612;2024-01-16T14:25:54;1.20;;;1.10;;
51479;SDS011;37556;44.570;18.612;2024-01-16T14:28:23;1.23;;;1.23;;
51479;SDS011;37556;44.570;18.612;2024-01-16T14:30:54;1.88;;;0.20;;
51479;SDS011;37556;44.570;18.612;2024-01-16T14:33:23;1.38;;;0.93;;
51479;SDS011;37556;44.570;18.612;2024-01-16T14:35:55;0.75;;;0.75;;
51479;SDS011;37556;44.570;18.612;2024-01-16T14:38:24;0.85;;;0.85;;
51479;SDS011;37556;44.570;18.612;2024-01-16T14:40:54;0.15;;;0.15;;
51479;SDS011;37556;44.570;18.612;2024-01-16T14:43:23;1.48;;;0.88;;
51479;SDS011;37556;44.570;18.612;2024-01-16T14:45:53;0.45;;;0.45;;
51479;SDS011;37556;44.570;18.612;2024-01-16T14:48:25;0.35;;;0.35;;
51479;SDS011;37556;44.570;18.612;2024-01-16T14:50:54;0.10;;;0.10;;
51479;SDS011;37556;44.570;18.612;2024-01-16T14:53:24;0.05;;;0.05;;
51479;SDS011;37556;44.570;18.612;2024-01-16T14:55:50;0.77;;;0.65;;
51479;SDS011;37556;44.570;18.612;2024-01-16T15:01:22;0.47;;;0.47;;
51479;SDS011;37556;44.570;18.612;2024-01-16T15:03:51;0.00;;;0.00;;
51479;SDS011;37556;44.570;18.612;2024-01-16T15:06:21;0.40;;;0.40;;
51479;SDS011;37556;44.570;18.612;2024-01-16T15:09:05;0.20;;;0.20;;
51479;SDS011;37556;44.570;18.612;2024-01-16T15:11:35;0.52;;;0.52;;
51479;SDS011;37556;44.570;18.612;2024-01-16T15:14:04;0.80;;;0.75;;
51479;SDS011;37556;44.570;18.612;2024-01-16T15:16:30;0.43;;;0.43;;
51479;SDS011;37556;44.570;18.612;2024-01-16T15:19:05;0.40;;;0.40;;
51479;SDS011;37556;44.570;18.612;2024-01-16T15:21:35;5.22;;;4.82;;
51479;SDS011;37556;44.570;18.612;2024-01-16T15:24:04;7.43;;;2.38;;
51479;SDS011;37556;44.570;18.612;2024-01-16T15:26:49;3.65;;;2.05;;
51479;SDS011;37556;44.570;18.612;2024-01-16T15:29:18;1.17;;;1.08;;
51479;SDS011;37556;44.570;18.612;2024-01-16T15:31:47;4.18;;;2.90;;
51479;SDS011;37556;44.570;18.612;2024-01-16T15:34:13;3.40;;;1.30;;
51479;SDS011;37556;44.570;18.612;2024-01-16T15:39:14;3.25;;;1.27;;
51479;SDS011;37556;44.570;18.612;2024-01-16T15:41:44;1.52;;;1.27;;
51479;SDS011;37556;44.570;18.612;2024-01-16T15:46:57;13.80;;;5.95;;
51479;SDS011;37556;44.570;18.612;2024-01-16T15:49:27;7.45;;;3.92;;
51479;SDS011;37556;44.570;18.612;2024-01-16T15:52:12;11.30;;;7.97;;
51479;SDS011;37556;44.570;18.612;2024-01-16T15:54:41;12.25;;;9.70;;
51479;SDS011;37556;44.570;18.612;2024-01-16T15:57:07;23.63;;;11.85;;
51479;SDS011;37556;44.570;18.612;2024-01-16T15:59:36;12.55;;;9.77;;
51479;SDS011;37556;44.570;18.612;2024-01-16T16:02:02;10.60;;;6.60;;
51479;SDS011;37556;44.570;18.612;2024-01-16T16:04:32;5.72;;;4.90;;
51479;SDS011;37556;44.570;18.612;2024-01-16T16:07:05;7.80;;;5.93;;
51479;SDS011;37556;44.570;18.612;2024-01-16T16:09:35;7.15;;;5.78;;
51479;SDS011;37556;44.570;18.612;2024-01-16T16:12:05;5.38;;;3.08;;
51479;SDS011;37556;44.570;18.612;2024-01-16T16:14:35;2.80;;;2.10;;
51479;SDS011;37556;44.570;18.612;2024-01-16T16:17:07;4.35;;;3.13;;
51479;SDS011;37556;44.570;18.612;2024-01-16T16:19:36;6.47;;;3.47;;
51479;SDS011;37556;44.570;18.612;2024-01-16T16:22:03;3.25;;;2.95;;
51479;SDS011;37556;44.570;18.612;2024-01-16T16:24:32;15.10;;;7.38;;
51479;SDS011;37556;44.570;18.612;2024-01-16T16:27:04;23.48;;;10.27;;
51479;SDS011;37556;44.570;18.612;2024-01-16T16:29:46;6.88;;;6.03;;
51479;SDS011;37556;44.570;18.612;2024-01-16T16:34:51;6.97;;;6.43;;
51479;SDS011;37556;44.570;18.612;2024-01-16T16:37:20;17.10;;;9.02;;
51479;SDS011;37556;44.570;18.612;2024-01-16T16:39:50;9.85;;;5.60;;
51479;SDS011;37556;44.570;18.612;2024-01-16T16:42:29;10.75;;;5.70;;
51479;SDS011;37556;44.570;18.612;2024-01-16T16:45:13;18.20;;;5.85;;
51479;SDS011;37556;44.570;18.612;2024-01-16T16:47:58;13.35;;;8.05;;
51479;SDS011;37556;44.570;18.612;2024-01-16T16:50:27;11.93;;;6.75;;
51479;SDS011;37556;44.570;18.612;2024-01-16T16:52:53;6.25;;;5.38;;
51479;SDS011;37556;44.570;18.612;2024-01-16T16:55:31;9.55;;;4.15;;
51479;SDS011;37556;44.570;18.612;2024-01-16T16:58:00;6.78;;;5.25;;
51479;SDS011;37556;44.570;18.612;2024-01-16T17:00:32;7.82;;;7.18;;
51479;SDS011;37556;44.570;18.612;2024-01-16T17:03:04;4.22;;;3.88;;
51479;SDS011;37556;44.570;18.612;2024-01-16T17:05:43;20.42;;;6.47;;
51479;SDS011;37556;44.570;18.612;2024-01-16T17:08:12;9.18;;;5.07;;
51479;SDS011;37556;44.570;18.612;2024-01-16T17:10:38;1.80;;;1.80;;
51479;SDS011;37556;44.570;18.612;2024-01-16T17:13:16;4.75;;;2.30;;
51479;SDS011;37556;44.570;18.612;2024-01-16T17:15:43;11.02;;;5.63;;
51479;SDS011;37556;44.570;18.612;2024-01-16T17:18:12;4.40;;;3.97;;
51479;SDS011;37556;44.570;18.612;2024-01-16T17:20:41;4.65;;;4.32;;
51479;SDS011;37556;44.570;18.612;2024-01-16T17:23:07;10.40;;;4.53;;
51479;SDS011;37556;44.570;18.612;2024-01-16T17:25:36;8.90;;;4.72;;
51479;SDS011;37556;44.570;18.612;2024-01-16T17:28:03;5.28;;;4.80;;
51479;SDS011;37556;44.570;18.612;2024-01-16T17:30:32;7.70;;;3.72;;
51479;SDS011;37556;44.570;18.612;2024-01-16T17:32:58;15.32;;;4.57;;
51479;SDS011;37556;44.570;18.612;2024-01-16T17:35:28;5.50;;;3.20;;
51479;SDS011;37556;44.570;18.612;2024-01-16T17:37:54;5.13;;;4.38;;
51479;SDS011;37556;44.570;18.612;2024-01-16T17:40:38;5.63;;;3.08;;
51479;SDS011;37556;44.570;18.612;2024-01-16T17:43:08;2.95;;;1.55;;
51479;SDS011;37556;44.570;18.612;2024-01-16T17:45:34;2.13;;;2.03;;
51479;SDS011;37556;44.570;18.612;2024-01-16T17:48:04;1.88;;;1.42;;
51479;SDS011;37556;44.570;18.612;2024-01-16T17:50:36;4.72;;;2.92;;
51479;SDS011;37556;44.570;18.612;2024-01-16T17:53:15;7.40;;;3.75;;
51479;SDS011;37556;44.570;18.612;2024-01-16T17:55:44;14.52;;;5.03;;
51479;SDS011;37556;44.570;18.612;2024-01-16T17:58:17;3.83;;;2.08;;
